ORER/EBL METAR and TAF weather

Enter ICAO airport designator
Station Type Date Time Source
ORER METAR 2020/03/29 11:00 UTC NOAA

ORER 291100Z 24008KT 9000 TSRA FEW020CB BKN030 14/11 Q1010 NOSIG


Station Type Date Time Source
ORER Decoded METAR 2020/03/29 11:00 UTC NOAA

Station name not available
Mar 29, 2020 - 07:00 AM EDT / 2020.03.29 1100 UTC
Wind: from the WSW (240 degrees) at 9 MPH (8 KT):0
Visibility: 5 mile(s):0
Sky conditions: mostly cloudy
Weather: rain with thunder; Cumulonimbus clouds observed
Temperature: 57 F (14 C)
Dew Point: 51 F (11 C)
Relative Humidity: 82%
Pressure (altimeter): 29.83 in. Hg (1010 hPa)
ob: ORER 291100Z 24008KT 9000 TSRA FEW020CB BKN030 14/11 Q1010 NOSIG
cycle: 11

Station Type Date Time Source
ORER TAF 2020/03/29 06:21 UTC NOAA

TAF ORER 290400Z 2906/3006 14010KT 7000 RA FEW030 SCT033
TEMPO 2911/2915 TSSHRA FEW025CB

Example: see airport list